CA-0034 weather

CLOSED Basnett Airport
Alberta, Canada

Public forecast

Using degrees Celsius for public forecast. Weather courtesy of forecast.io.

Closest aviation weather report (METAR) to Basnett Airport

Closest report is Fort St John Airport, 74.2 nm (137.5 km) SSW. Retrieved 2019/10/22 20:00 UTC (5 minutes ago):

CYXJ 222000Z 32015G25KT 15SM SCT020 BKN080 02/M01 A2983 RMK SC4AC2 PRESRR SLP136

Closest aviation forecast (TAF) to Basnett Airport

Closest forecast is Fort St John Airport, 74.2 nm (137.5 km) SSW. Retrieved 2019/10/22 19:39 UTC (26 minutes ago):

TAF CYXJ 221838Z 2219/2307 31010KT P6SM SCT012 BKN030 OVC050 TEMPO 2219/2302 6SM -RASN BR BKN012 OVC030 BECMG 2219/2221 32015G25KT FM230200 31010KT P6SM SCT060 BECMG 2304/2306 VRB03KT RMK NXT FCST BY 230100Z